createdAt,value
2023-05-02T00:01:55.734Z,10.55
2023-05-02T00:04:24.900Z,13.90
2023-05-02T00:06:53.191Z,11.80
2023-05-02T00:09:20.190Z,12.07
2023-05-02T00:11:46.853Z,11.80
2023-05-02T00:14:13.486Z,13.27
2023-05-02T00:16:40.512Z,12.88
2023-05-02T00:19:07.198Z,12.35
2023-05-02T00:21:34.993Z,10.75
2023-05-02T00:24:01.696Z,11.97
2023-05-02T00:26:28.957Z,9.52
2023-05-02T00:28:55.415Z,9.32
2023-05-02T00:31:22.032Z,9.15
2023-05-02T00:33:48.706Z,7.90
2023-05-02T00:36:17.098Z,7.17
2023-05-02T00:38:43.921Z,6.53
2023-05-02T00:41:10.978Z,6.22
2023-05-02T00:43:39.636Z,6.03
2023-05-02T00:46:07.789Z,5.32
2023-05-02T00:48:34.903Z,5.00
2023-05-02T00:51:05.381Z,5.53
2023-05-02T00:53:32.096Z,5.03
2023-05-02T00:55:59.246Z,5.53
2023-05-02T00:58:26.598Z,6.00
2023-05-02T01:00:56.662Z,5.17
2023-05-02T01:03:54.145Z,6.47
2023-05-02T01:06:20.766Z,4.13
2023-05-02T01:08:54.301Z,4.53
2023-05-02T01:11:39.606Z,4.05
2023-05-02T01:14:10.420Z,3.60
2023-05-02T01:16:52.811Z,3.72
2023-05-02T01:19:29.427Z,2.83
2023-05-02T01:21:58.345Z,2.05
2023-05-02T01:24:32.739Z,2.08
2023-05-02T01:27:20.246Z,1.70
2023-05-02T01:29:51.327Z,1.33
2023-05-02T01:32:22.248Z,1.30
2023-05-02T01:34:51.849Z,1.27
2023-05-02T01:37:19.854Z,1.38
2023-05-02T01:39:47.386Z,1.23
2023-05-02T01:42:15.121Z,1.42
2023-05-02T01:44:43.560Z,1.20
2023-05-02T01:47:11.076Z,1.15
2023-05-02T01:49:39.081Z,1.52
2023-05-02T01:52:11.760Z,1.20
2023-05-02T01:54:40.250Z,1.13
2023-05-02T01:57:09.349Z,1.42
2023-05-02T01:59:37.715Z,1.45
2023-05-02T02:02:06.662Z,2.08
2023-05-02T02:04:37.515Z,0.90
2023-05-02T02:07:09.893Z,1.23
2023-05-02T02:09:36.968Z,0.98
2023-05-02T02:12:12.108Z,0.95
2023-05-02T02:14:42.992Z,1.23
2023-05-02T02:17:15.239Z,1.30
2023-05-02T02:19:43.412Z,1.58
2023-05-02T02:22:13.616Z,1.25
2023-05-02T02:24:41.502Z,0.93
2023-05-02T02:27:08.527Z,1.17
2023-05-02T02:29:35.032Z,0.90
2023-05-02T02:32:01.653Z,0.95
2023-05-02T02:34:28.856Z,0.93
2023-05-02T02:37:05.131Z,1.15
2023-05-02T02:39:46.378Z,1.20
2023-05-02T02:42:16.107Z,0.67
2023-05-02T02:45:23.710Z,0.60
2023-05-02T02:48:02.544Z,0.70
2023-05-02T02:50:50.031Z,0.63
2023-05-02T02:53:25.797Z,0.55
2023-05-02T02:56:05.094Z,0.87
2023-05-02T02:58:37.486Z,0.88
2023-05-02T03:01:06.610Z,0.70
2023-05-02T03:03:34.480Z,0.90
2023-05-02T03:06:03.908Z,0.60
2023-05-02T03:08:40.182Z,0.70
2023-05-02T03:11:06.897Z,0.70
2023-05-02T03:13:33.531Z,0.68
2023-05-02T03:16:29.630Z,1.20
2023-05-02T03:18:57.197Z,0.40
2023-05-02T03:21:24.210Z,0.73
2023-05-02T03:23:50.890Z,0.57
2023-05-02T03:26:17.540Z,0.82
2023-05-02T03:28:46.950Z,0.90
2023-05-02T03:31:14.817Z,0.65
2023-05-02T03:33:41.664Z,0.83
2023-05-02T03:36:08.728Z,0.52
2023-05-02T03:38:35.354Z,0.77
2023-05-02T03:41:02.077Z,0.70
2023-05-02T03:43:28.976Z,0.75
2023-05-02T03:45:55.562Z,1.17
2023-05-02T03:48:22.697Z,0.95
2023-05-02T03:50:50.590Z,1.00
2023-05-02T03:53:17.386Z,1.02
2023-05-02T03:55:43.844Z,2.35
2023-05-02T03:58:11.398Z,1.03
2023-05-02T04:00:41.086Z,1.20
2023-05-02T04:03:08.088Z,1.15
2023-05-02T04:05:34.634Z,0.75
2023-05-02T04:08:02.489Z,1.00
2023-05-02T04:10:29.181Z,0.43
2023-05-02T04:12:55.753Z,0.65
2023-05-02T04:15:22.340Z,1.10
2023-05-02T04:17:49.050Z,1.10
2023-05-02T04:20:15.904Z,1.50
2023-05-02T04:22:42.589Z,0.80
2023-05-02T04:25:09.341Z,0.70
2023-05-02T04:27:36.058Z,0.93
2023-05-02T04:30:02.828Z,0.80
2023-05-02T04:32:29.683Z,0.63
2023-05-02T04:34:56.621Z,0.97
2023-05-02T04:37:23.370Z,0.73
2023-05-02T04:39:50.492Z,0.70
2023-05-02T04:42:17.109Z,0.80
2023-05-02T04:44:43.682Z,0.77
2023-05-02T04:47:10.326Z,0.63
2023-05-02T04:49:36.971Z,0.73
2023-05-02T04:52:03.860Z,0.80
2023-05-02T04:54:32.400Z,1.30
2023-05-02T04:56:59.578Z,1.30
2023-05-02T04:59:26.151Z,1.07
2023-05-02T05:01:52.806Z,1.10
2023-05-02T05:04:20.647Z,1.70
2023-05-02T05:06:48.765Z,1.00
2023-05-02T05:09:15.875Z,1.15
2023-05-02T05:11:46.412Z,1.27
2023-05-02T05:14:13.028Z,1.17
2023-05-02T05:16:39.811Z,1.25
2023-05-02T05:19:06.734Z,1.42
2023-05-02T05:21:33.653Z,1.38
2023-05-02T05:24:00.640Z,0.87
2023-05-02T05:26:27.324Z,1.33
2023-05-02T05:28:53.822Z,1.50
2023-05-02T05:31:20.605Z,1.40
2023-05-02T05:33:47.335Z,1.75
2023-05-02T05:36:17.375Z,1.33
2023-05-02T05:38:44.041Z,1.67
2023-05-02T05:44:05.684Z,1.20
2023-05-02T05:46:32.486Z,1.25
2023-05-02T05:48:59.051Z,1.30
2023-05-02T05:51:27.932Z,1.42
2023-05-02T05:53:54.451Z,1.17
2023-05-02T05:56:22.932Z,1.80
2023-05-02T05:58:49.842Z,1.48
2023-05-02T06:01:16.412Z,1.90
2023-05-02T06:03:43.284Z,2.08
2023-05-02T06:06:09.938Z,1.73
2023-05-02T06:08:36.540Z,1.52
2023-05-02T06:13:57.397Z,1.87
2023-05-02T06:16:24.021Z,2.08
2023-05-02T06:18:52.800Z,1.75
2023-05-02T06:21:19.593Z,1.38
2023-05-02T06:23:46.560Z,1.98
2023-05-02T06:26:13.254Z,2.07
2023-05-02T06:28:40.407Z,1.83
2023-05-02T06:31:07.105Z,1.63
2023-05-02T06:33:34.345Z,1.30
2023-05-02T06:36:02.196Z,1.10
2023-05-02T06:38:29.449Z,1.27
2023-05-02T06:40:56.080Z,0.90
2023-05-02T06:43:22.850Z,1.05
2023-05-02T06:45:54.693Z,1.65
2023-05-02T06:48:21.756Z,0.98
2023-05-02T06:50:49.492Z,0.80
2023-05-02T06:53:16.511Z,1.10
2023-05-02T06:55:44.363Z,1.00
2023-05-02T06:58:11.063Z,1.30
2023-05-02T07:00:37.741Z,1.48
2023-05-02T07:03:04.687Z,0.93
2023-05-02T07:05:31.550Z,1.60
2023-05-02T07:07:58.279Z,1.17
2023-05-02T07:10:24.891Z,1.50
2023-05-02T07:12:51.633Z,1.45
2023-05-02T07:15:18.387Z,1.17
2023-05-02T07:17:47.509Z,1.33
2023-05-02T07:20:14.673Z,1.33
2023-05-02T07:22:41.413Z,1.70
2023-05-02T07:25:08.431Z,0.93
2023-05-02T07:27:35.356Z,0.90
2023-05-02T07:30:02.339Z,1.02
2023-05-02T07:32:29.495Z,1.08
2023-05-02T07:34:59.238Z,1.00
2023-05-02T07:37:25.751Z,1.17
2023-05-02T07:39:52.621Z,1.20
2023-05-02T07:42:19.204Z,0.85
2023-05-02T07:44:45.857Z,1.52
2023-05-02T07:47:12.370Z,1.45
2023-05-02T07:49:38.932Z,1.27
2023-05-02T07:52:05.386Z,1.27
2023-05-02T07:54:32.100Z,1.08
2023-05-02T07:57:02.239Z,1.02
2023-05-02T07:59:31.099Z,1.70
2023-05-02T08:01:57.961Z,1.13
2023-05-02T08:04:25.148Z,1.03
2023-05-02T08:06:53.172Z,0.75
2023-05-02T08:09:20.057Z,0.90
2023-05-02T08:11:47.262Z,0.93
2023-05-02T08:17:03.332Z,0.80
2023-05-02T08:19:30.124Z,0.90
2023-05-02T08:21:56.688Z,1.45
2023-05-02T08:24:23.390Z,0.90
2023-05-02T08:26:51.144Z,0.95
2023-05-02T08:29:17.819Z,0.70
2023-05-02T08:31:44.540Z,0.95
2023-05-02T08:34:11.379Z,0.47
2023-05-02T08:36:38.370Z,0.90
2023-05-02T08:39:05.206Z,1.08
2023-05-02T08:41:32.860Z,0.57
2023-05-02T08:44:01.802Z,0.60
2023-05-02T08:46:29.058Z,0.75
2023-05-02T08:49:01.208Z,0.70
2023-05-02T08:54:26.174Z,0.70
2023-05-02T08:56:56.933Z,0.85
2023-05-02T08:59:30.981Z,0.68
2023-05-02T09:05:21.369Z,1.30
2023-05-02T09:07:49.678Z,0.50
2023-05-02T09:10:16.377Z,0.57
2023-05-02T09:12:43.417Z,0.70
2023-05-02T09:15:11.997Z,0.63
2023-05-02T09:17:41.396Z,0.50
2023-05-02T09:20:09.161Z,0.80
2023-05-02T09:22:36.464Z,0.70
2023-05-02T09:25:04.594Z,0.65
2023-05-02T09:27:49.560Z,0.55
2023-05-02T09:30:26.933Z,0.70
2023-05-02T09:32:56.254Z,0.50
2023-05-02T09:35:26.884Z,0.70
2023-05-02T09:37:57.633Z,0.80
2023-05-02T09:40:25.458Z,0.60
2023-05-02T09:42:52.990Z,0.65
2023-05-02T09:45:22.219Z,0.63
2023-05-02T09:47:50.476Z,0.75
2023-05-02T09:50:36.852Z,1.30
2023-05-02T09:53:05.648Z,0.80
2023-05-02T09:55:32.456Z,1.73
2023-05-02T09:57:59.935Z,1.63
2023-05-02T10:00:45.660Z,1.20
2023-05-02T10:03:16.587Z,1.33
2023-05-02T10:05:45.863Z,0.80
2023-05-02T10:08:18.844Z,1.20
2023-05-02T10:10:53.974Z,0.87
2023-05-02T10:13:27.278Z,0.80
2023-05-02T10:16:01.388Z,1.13
2023-05-02T10:18:38.244Z,0.70
2023-05-02T10:21:11.068Z,0.98
2023-05-02T10:23:41.414Z,2.70
2023-05-02T10:26:08.644Z,0.70
2023-05-02T10:28:36.449Z,1.00
2023-05-02T10:31:05.255Z,1.25
2023-05-02T10:33:35.321Z,0.85
2023-05-02T10:36:02.556Z,0.97
2023-05-02T10:38:29.664Z,0.82
2023-05-02T10:41:01.540Z,1.05
2023-05-02T10:43:34.210Z,1.08
2023-05-02T10:46:03.570Z,1.00
2023-05-02T10:48:30.776Z,1.70
2023-05-02T10:51:01.243Z,0.95
2023-05-02T10:53:36.421Z,1.38
2023-05-02T10:59:36.648Z,2.40
2023-05-02T11:02:07.088Z,1.00
2023-05-02T11:05:12.953Z,1.00
2023-05-02T11:07:39.639Z,1.05
2023-05-02T11:10:18.544Z,1.00
2023-05-02T11:12:49.680Z,0.82
2023-05-02T11:15:42.220Z,1.00
2023-05-02T11:18:13.321Z,1.05
2023-05-02T11:20:41.622Z,1.00
2023-05-02T11:23:14.124Z,0.93
2023-05-02T11:25:46.322Z,1.13
2023-05-02T11:28:34.539Z,0.83
2023-05-02T11:31:01.038Z,1.20
2023-05-02T11:33:29.438Z,1.20
2023-05-02T11:35:59.331Z,1.50
2023-05-02T11:38:27.347Z,1.15
2023-05-02T11:40:58.315Z,1.07
2023-05-02T11:43:28.710Z,1.60
2023-05-02T11:45:59.852Z,1.05
2023-05-02T11:48:27.707Z,1.52
2023-05-02T11:51:02.407Z,1.60
2023-05-02T11:53:30.156Z,1.10
2023-05-02T11:55:58.994Z,1.40
2023-05-02T11:58:30.207Z,1.33
2023-05-02T12:00:57.353Z,1.40
2023-05-02T12:03:32.423Z,1.25
2023-05-02T12:06:11.600Z,1.23
2023-05-02T12:08:39.964Z,1.70
2023-05-02T12:11:07.070Z,1.83
2023-05-02T12:13:34.024Z,1.73
2023-05-02T12:16:02.821Z,1.73
2023-05-02T12:18:29.561Z,1.60
2023-05-02T12:20:56.651Z,1.35
2023-05-02T12:23:26.934Z,1.13
2023-05-02T12:25:53.526Z,1.20
2023-05-02T12:28:20.803Z,1.05
2023-05-02T12:30:49.685Z,1.10
2023-05-02T12:33:17.757Z,1.50
2023-05-02T12:35:48.279Z,1.63
2023-05-02T12:38:20.706Z,2.22
2023-05-02T12:40:49.617Z,1.30
2023-05-02T12:43:16.836Z,0.97
2023-05-02T12:45:44.242Z,1.15
2023-05-02T12:48:28.123Z,1.50
2023-05-02T12:50:55.475Z,0.93
2023-05-02T12:53:43.297Z,1.10
2023-05-02T12:56:11.346Z,1.00
2023-05-02T12:58:43.262Z,1.25
2023-05-02T13:01:10.789Z,1.35
2023-05-02T13:03:37.819Z,1.50
2023-05-02T13:06:04.724Z,1.33
2023-05-02T13:08:33.462Z,1.07
2023-05-02T13:11:00.949Z,1.10
2023-05-02T13:13:28.204Z,1.10
2023-05-02T13:15:54.927Z,1.08
2023-05-02T13:18:21.609Z,1.20
2023-05-02T13:20:48.374Z,1.43
2023-05-02T13:23:16.992Z,0.93
2023-05-02T13:25:45.004Z,1.23
2023-05-02T13:28:11.590Z,0.88
2023-05-02T13:33:32.732Z,0.80
2023-05-02T13:38:53.492Z,0.98
2023-05-02T13:41:20.185Z,1.38
2023-05-02T13:43:46.903Z,1.10
2023-05-02T13:46:14.126Z,1.00
2023-05-02T13:48:40.898Z,1.90
2023-05-02T13:54:02.822Z,1.48
2023-05-02T13:56:29.385Z,1.15
2023-05-02T13:58:56.187Z,0.83
2023-05-02T14:01:24.210Z,0.80
2023-05-02T14:03:51.173Z,1.42
2023-05-02T14:06:18.910Z,0.70
2023-05-02T14:08:46.014Z,0.98
2023-05-02T14:11:13.858Z,0.90
2023-05-02T14:13:40.602Z,0.80
2023-05-02T14:16:39.908Z,0.70
2023-05-02T14:19:06.797Z,0.63
2023-05-02T14:21:33.413Z,0.80
2023-05-02T14:24:00.340Z,0.70
2023-05-02T14:26:26.982Z,0.70
2023-05-02T14:28:53.576Z,1.00
2023-05-02T14:31:20.263Z,0.80
2023-05-02T14:33:46.917Z,0.82
2023-05-02T14:36:13.683Z,0.50
2023-05-02T14:38:40.675Z,0.73
2023-05-02T14:41:07.497Z,0.90
2023-05-02T14:43:34.022Z,0.50
2023-05-02T14:46:00.726Z,0.60
2023-05-02T14:48:27.362Z,0.90
2023-05-02T14:50:54.036Z,0.90
2023-05-02T14:53:22.323Z,0.80
2023-05-02T14:55:48.986Z,0.80
2023-05-02T14:58:20.666Z,0.60
2023-05-02T15:00:47.912Z,0.70
2023-05-02T15:03:14.652Z,1.20
2023-05-02T15:05:41.985Z,1.38
2023-05-02T15:08:08.595Z,0.75
2023-05-02T15:10:42.907Z,0.70
2023-05-02T15:13:09.528Z,1.00
2023-05-02T15:15:40.837Z,0.70
2023-05-02T15:18:07.471Z,0.82
2023-05-02T15:20:37.849Z,0.85
2023-05-02T15:23:04.750Z,0.70
2023-05-02T15:25:31.828Z,0.50
2023-05-02T15:27:58.377Z,0.85
2023-05-02T15:30:25.497Z,0.98
2023-05-02T15:32:52.228Z,0.65
2023-05-02T15:35:21.685Z,0.70
2023-05-02T15:37:48.445Z,0.50
2023-05-02T15:40:15.231Z,1.17
2023-05-02T15:42:41.887Z,0.88
2023-05-02T15:45:12.260Z,0.70
2023-05-02T15:47:39.642Z,1.00
2023-05-02T15:50:07.960Z,0.63
2023-05-02T15:52:34.821Z,0.80
2023-05-02T15:55:01.843Z,0.70
2023-05-02T15:57:28.844Z,0.80
2023-05-02T15:59:55.829Z,0.60
2023-05-02T16:02:22.431Z,0.70
2023-05-02T16:04:48.954Z,0.60
2023-05-02T16:07:15.927Z,0.90
2023-05-02T16:09:42.602Z,0.70
2023-05-02T16:12:09.513Z,0.55
2023-05-02T16:14:36.311Z,0.60
2023-05-02T16:17:02.908Z,0.70
2023-05-02T16:19:29.838Z,0.75
2023-05-02T16:21:58.014Z,0.70
2023-05-02T16:24:27.684Z,0.45
2023-05-02T16:26:56.151Z,0.50
2023-05-02T16:29:22.875Z,0.80
2023-05-02T16:31:49.717Z,0.70
2023-05-02T16:34:16.568Z,0.50
2023-05-02T16:36:46.877Z,0.50
2023-05-02T16:39:15.638Z,0.60
2023-05-02T16:41:42.433Z,0.47
2023-05-02T16:44:10.724Z,0.50
2023-05-02T16:46:37.768Z,0.45
2023-05-02T16:49:04.303Z,0.50
2023-05-02T16:51:32.063Z,0.60
2023-05-02T16:53:58.765Z,0.40
2023-05-02T16:56:27.737Z,0.60
2023-05-02T16:58:55.486Z,0.50
2023-05-02T17:01:23.733Z,0.50
2023-05-02T17:03:50.408Z,0.50
2023-05-02T17:06:16.983Z,0.82
2023-05-02T17:08:43.610Z,0.55
2023-05-02T17:11:10.833Z,0.55
2023-05-02T17:13:37.525Z,0.50
2023-05-02T17:16:04.670Z,0.50
2023-05-02T17:18:31.479Z,0.70
2023-05-02T17:20:58.397Z,0.70
2023-05-02T17:23:25.394Z,0.50
2023-05-02T17:25:51.966Z,0.73
2023-05-02T17:28:20.189Z,0.57
2023-05-02T17:33:42.650Z,0.45
2023-05-02T17:36:09.356Z,0.60
2023-05-02T17:38:36.014Z,0.70
2023-05-02T17:41:02.683Z,0.37
2023-05-02T17:43:29.242Z,0.60
2023-05-02T17:45:56.207Z,0.60
2023-05-02T17:48:22.909Z,0.45
2023-05-02T17:50:51.222Z,0.60
2023-05-02T17:53:17.894Z,0.60
2023-05-02T17:55:44.801Z,0.40
2023-05-02T17:58:11.511Z,0.60
2023-05-02T18:00:38.141Z,0.60
2023-05-02T18:03:04.874Z,0.60
2023-05-02T18:05:37.548Z,0.73
2023-05-02T18:08:04.199Z,0.35
2023-05-02T18:10:36.806Z,0.55
2023-05-02T18:13:03.726Z,0.60
2023-05-02T18:15:30.404Z,0.40
2023-05-02T18:17:57.075Z,0.40
2023-05-02T18:20:24.430Z,0.50
2023-05-02T18:22:51.737Z,0.50
2023-05-02T18:25:18.521Z,0.60
2023-05-02T18:27:45.005Z,0.50
2023-05-02T18:30:11.998Z,0.40
2023-05-02T18:32:38.788Z,0.50
2023-05-02T18:35:10.444Z,0.35
2023-05-02T18:37:37.215Z,0.40
2023-05-02T18:40:03.988Z,0.40
2023-05-02T18:42:31.806Z,0.40
2023-05-02T18:44:58.386Z,0.32
2023-05-02T18:47:24.929Z,0.40
2023-05-02T18:49:52.476Z,0.38
2023-05-02T18:52:19.225Z,0.60
2023-05-02T18:54:45.808Z,0.40
2023-05-02T18:57:12.843Z,0.50
2023-05-02T18:59:39.456Z,0.45
2023-05-02T19:02:06.056Z,0.50
2023-05-02T19:04:33.019Z,0.60
2023-05-02T19:06:59.536Z,0.60
2023-05-02T19:09:26.112Z,0.50
2023-05-02T19:12:04.647Z,0.70
2023-05-02T19:14:32.444Z,0.40
2023-05-02T19:16:59.639Z,0.60
2023-05-02T19:19:26.349Z,0.40
2023-05-02T19:21:53.431Z,0.50
2023-05-02T19:24:21.176Z,0.50
2023-05-02T19:26:47.753Z,0.40
2023-05-02T19:29:14.382Z,0.45
2023-05-02T19:31:42.554Z,0.37
2023-05-02T19:34:09.272Z,0.40
2023-05-02T19:36:36.376Z,0.77
2023-05-02T19:39:04.137Z,0.65
2023-05-02T19:41:31.165Z,0.40
2023-05-02T19:43:58.961Z,0.30
2023-05-02T19:46:25.985Z,0.30
2023-05-02T19:48:52.729Z,0.25
2023-05-02T19:51:25.942Z,0.68
2023-05-02T19:53:54.565Z,0.40
2023-05-02T19:56:21.622Z,0.30
2023-05-02T19:58:49.304Z,0.32
2023-05-02T20:01:16.057Z,0.32
2023-05-02T20:03:42.833Z,0.30
2023-05-02T20:06:09.418Z,0.30
2023-05-02T20:08:36.292Z,0.20
2023-05-02T20:11:03.216Z,0.40
2023-05-02T20:13:29.938Z,0.50
2023-05-02T20:15:56.500Z,0.30
2023-05-02T20:18:23.312Z,0.40
2023-05-02T20:20:50.121Z,0.33
2023-05-02T20:23:16.581Z,0.50
2023-05-02T20:25:44.711Z,0.40
2023-05-02T20:28:11.400Z,0.47
2023-05-02T20:30:39.830Z,0.52
2023-05-02T20:33:14.940Z,0.40
2023-05-02T20:35:44.608Z,0.30
2023-05-02T20:38:11.392Z,0.80
2023-05-02T20:40:40.202Z,0.40
2023-05-02T20:43:07.483Z,0.52
2023-05-02T20:45:34.517Z,0.60
2023-05-02T20:48:01.386Z,0.55
2023-05-02T20:50:28.772Z,0.60
2023-05-02T20:52:56.495Z,0.57
2023-05-02T20:55:24.425Z,0.50
2023-05-02T20:57:53.481Z,0.40
2023-05-02T21:00:22.923Z,0.50
2023-05-02T21:02:49.855Z,0.90
2023-05-02T21:05:16.805Z,0.55
2023-05-02T21:07:44.844Z,0.60
2023-05-02T21:10:11.701Z,0.37
2023-05-02T21:12:38.807Z,0.55
2023-05-02T21:15:07.215Z,0.50
2023-05-02T21:17:33.932Z,0.60
2023-05-02T21:20:01.127Z,0.70
2023-05-02T21:22:27.958Z,0.70
2023-05-02T21:24:54.472Z,0.60
2023-05-02T21:27:21.344Z,0.77
2023-05-02T21:29:48.000Z,0.40
2023-05-02T21:32:14.830Z,0.50
2023-05-02T21:34:41.338Z,0.30
2023-05-02T21:37:08.231Z,0.40
2023-05-02T21:39:34.791Z,0.30
2023-05-02T21:42:01.632Z,0.60
2023-05-02T21:44:28.379Z,0.60
2023-05-02T21:46:55.050Z,0.50
2023-05-02T21:49:21.911Z,0.70
2023-05-02T21:51:48.477Z,0.60
2023-05-02T21:54:15.169Z,0.63
2023-05-02T21:56:41.900Z,0.63
2023-05-02T21:59:08.684Z,0.40
2023-05-02T22:01:35.288Z,0.50
2023-05-02T22:04:01.897Z,0.40
2023-05-02T22:06:29.032Z,0.55
2023-05-02T22:08:55.731Z,0.65
2023-05-02T22:11:24.302Z,0.60
2023-05-02T22:13:50.953Z,0.50
2023-05-02T22:16:17.761Z,0.50
2023-05-02T22:18:44.721Z,0.50
2023-05-02T22:21:12.231Z,0.60
2023-05-02T22:23:39.062Z,0.50
2023-05-02T22:26:05.922Z,0.32
2023-05-02T22:28:32.527Z,0.70
2023-05-02T22:30:59.262Z,0.68
2023-05-02T22:33:25.839Z,0.80
2023-05-02T22:35:52.363Z,0.53
2023-05-02T22:38:20.122Z,0.47
2023-05-02T22:40:46.680Z,0.65
2023-05-02T22:43:13.351Z,0.55
2023-05-02T22:45:40.502Z,0.70
2023-05-02T22:48:08.179Z,0.60
2023-05-02T22:50:34.840Z,0.60
2023-05-02T22:53:04.032Z,0.90
2023-05-02T22:55:30.842Z,0.63
2023-05-02T22:57:57.886Z,0.47
2023-05-02T23:00:25.057Z,0.90
2023-05-02T23:02:51.887Z,1.13
2023-05-02T23:05:18.924Z,0.70
2023-05-02T23:07:45.602Z,0.80
2023-05-02T23:10:12.207Z,0.60
2023-05-02T23:12:39.189Z,1.13
2023-05-02T23:15:07.153Z,0.80
2023-05-02T23:17:37.297Z,0.50
2023-05-02T23:20:05.321Z,0.77
2023-05-02T23:22:35.800Z,0.60
2023-05-02T23:25:02.602Z,1.20
2023-05-02T23:27:29.406Z,0.50
2023-05-02T23:29:56.046Z,0.85
2023-05-02T23:32:23.883Z,0.63
2023-05-02T23:34:50.595Z,0.68
2023-05-02T23:37:17.194Z,0.87
2023-05-02T23:39:43.879Z,1.52
2023-05-02T23:42:10.592Z,0.80
2023-05-02T23:44:37.351Z,0.90
2023-05-02T23:47:04.026Z,0.85
2023-05-02T23:49:30.810Z,0.60
2023-05-02T23:51:57.429Z,1.33
2023-05-02T23:54:24.370Z,0.70
2023-05-02T23:56:53.878Z,0.85
2023-05-02T23:59:20.730Z,0.50
